Time;durP1;ratioP1;P1;durP2;ratioP2;P2;SDS_P1;SDS_P2;PMS_P1;PMS_P2;Temp;Humidity;BMP_temperature;BMP_pressure;BME280_temperature;BME280_humidity;BME280_pressure;Samples;Min_cycle;Max_cycle;Signal;HPM_P1;HPM_P2
2022/12/26 00:01:28;;;;;;;0.60;0.60;;;9.30;99.90;;;;;;4424585;32;20069;-66
2022/12/26 00:03:55;;;;;;;1.33;1.08;;;9.30;99.90;;;;;;4428499;32;20089;-65
2022/12/26 00:06:25;;;;;;;0.60;0.60;;;9.30;99.90;;;;;;4443532;32;20089;-65
2022/12/26 00:08:50;;;;;;;0.50;0.50;;;9.30;99.90;;;;;;4439659;32;20591;-66
2022/12/26 00:11:17;;;;;;;0.40;0.40;;;9.30;99.90;;;;;;4413795;32;20123;-66
2022/12/26 00:13:43;;;;;;;1.02;0.88;;;9.30;99.90;;;;;;4395217;32;20147;-65
2022/12/26 00:16:11;;;;;;;12.55;0.95;;;9.30;99.90;;;;;;4407120;32;20085;-66
2022/12/26 00:18:37;;;;;;;1.10;0.50;;;9.30;99.90;;;;;;4423380;32;20100;-66
2022/12/26 00:21:04;;;;;;;0.40;0.40;;;9.30;99.90;;;;;;4423538;32;20065;-66
2022/12/26 00:23:31;;;;;;;0.70;0.70;;;9.30;99.90;;;;;;4423213;32;20084;-66
2022/12/26 00:26:02;;;;;;;0.80;0.80;;;9.30;99.90;;;;;;4423838;32;20069;-66
2022/12/26 00:28:27;;;;;;;;;;;9.30;99.90;;;;;;4420106;32;20647;-66
2022/12/26 00:30:53;;;;;;;0.60;0.60;;;9.30;99.90;;;;;;4421719;32;19964;-65
2022/12/26 00:33:18;;;;;;;1.00;0.95;;;9.30;99.90;;;;;;4421776;32;20061;-66
2022/12/26 00:35:44;;;;;;;0.40;0.40;;;9.30;99.90;;;;;;4423796;32;20084;-66
2022/12/26 00:38:09;;;;;;;0.50;0.50;;;9.30;99.90;;;;;;4422703;32;20192;-66
2022/12/26 00:40:35;;;;;;;1.17;0.70;;;9.30;99.90;;;;;;4416681;32;21147;-66
2022/12/26 00:43:00;;;;;;;0.40;0.40;;;9.30;99.90;;;;;;4411458;32;20137;-64
2022/12/26 00:45:25;;;;;;;0.70;0.70;;;9.30;99.90;;;;;;4417972;32;20089;-66
2022/12/26 00:47:51;;;;;;;5.80;1.55;;;9.40;99.90;;;;;;4423908;32;20097;-66
2022/12/26 00:50:18;;;;;;;0.65;0.65;;;9.40;99.90;;;;;;4423701;32;20089;-66
2022/12/26 00:52:43;;;;;;;0.55;0.55;;;9.40;99.90;;;;;;4423260;32;20549;-66
2022/12/26 00:55:09;;;;;;;0.68;0.68;;;9.40;99.90;;;;;;4422267;32;20117;-66
2022/12/26 00:57:35;;;;;;;0.80;0.80;;;9.40;99.90;;;;;;4423015;32;20592;-66
2022/12/26 01:00:00;;;;;;;0.70;0.70;;;9.40;99.90;;;;;;4422687;32;20065;-66
2022/12/26 01:02:41;;;;;;;0.50;0.50;;;9.40;99.90;;;;;;4422857;32;20649;-66
2022/12/26 01:05:09;;;;;;;1.48;0.75;;;9.40;99.90;;;;;;4422286;32;20085;-66
2022/12/26 01:07:36;;;;;;;0.62;0.60;;;9.50;99.90;;;;;;4422610;32;20160;-66
2022/12/26 01:10:04;;;;;;;0.70;0.68;;;9.50;99.90;;;;;;4419335;32;20577;-66
2022/12/26 01:12:30;;;;;;;0.40;0.40;;;9.50;99.90;;;;;;4408769;32;20423;-65
2022/12/26 01:14:57;;;;;;;0.52;0.52;;;9.50;99.90;;;;;;4414432;32;20069;-66
2022/12/26 01:17:23;;;;;;;0.50;0.50;;;9.50;99.90;;;;;;4423139;32;20085;-66
2022/12/26 01:19:48;;;;;;;0.73;0.73;;;9.60;99.90;;;;;;4421346;32;20124;-66
2022/12/26 01:22:14;;;;;;;1.65;0.98;;;9.60;99.90;;;;;;4423053;32;20105;-65
2022/12/26 01:24:40;;;;;;;0.50;0.50;;;9.60;99.90;;;;;;4423849;32;20100;-66
2022/12/26 01:27:05;;;;;;;0.80;0.80;;;9.60;99.90;;;;;;4409963;32;20624;-66
2022/12/26 01:29:31;;;;;;;2.80;0.93;;;9.60;99.90;;;;;;4423676;32;20424;-66
2022/12/26 01:31:57;;;;;;;0.40;0.40;;;9.60;99.90;;;;;;4423362;32;20089;-66
2022/12/26 01:34:22;;;;;;;0.50;0.50;;;9.70;99.90;;;;;;4422767;32;20097;-66
2022/12/26 01:36:48;;;;;;;0.55;0.55;;;9.70;99.90;;;;;;4423926;32;20095;-66
2022/12/26 01:39:13;;;;;;;1.42;0.80;;;9.70;99.90;;;;;;4423158;32;20085;-68
2022/12/26 01:41:39;;;;;;;0.43;0.43;;;9.70;99.90;;;;;;4410664;32;20620;-66
2022/12/26 01:44:26;;;;;;;3.60;0.75;;;9.70;99.90;;;;;;4410415;32;20093;-65
2022/12/26 01:46:52;;;;;;;0.50;0.50;;;9.70;99.90;;;;;;4413688;32;20086;-66
2022/12/26 01:49:29;;;;;;;0.30;0.30;;;9.70;99.90;;;;;;4410197;32;20092;-66
2022/12/26 01:52:03;;;;;;;0.60;0.60;;;9.70;99.90;;;;;;4422346;32;20069;-66
2022/12/26 01:54:34;;;;;;;0.52;0.52;;;9.60;99.90;;;;;;4422138;32;20578;-66
2022/12/26 01:57:08;;;;;;;0.50;0.50;;;9.60;99.90;;;;;;4421572;32;20109;-66
2022/12/26 01:59:36;;;;;;;1.65;1.25;;;9.50;99.90;;;;;;4423651;32;20066;-66
2022/12/26 02:02:02;;;;;;;0.47;0.47;;;9.60;99.90;;;;;;4422382;32;20593;-65
2022/12/26 02:05:36;;;;;;;0.57;0.57;;;9.60;99.90;;;;;;4424146;32;20093;-65
2022/12/26 02:07:21;;;;;;;0.62;0.62;;;9.60;99.90;;;;;;4408986;32;20462;-66
2022/12/26 02:09:47;;;;;;;0.40;0.40;;;9.60;99.90;;;;;;4420384;32;20089;-65
2022/12/26 02:12:31;;;;;;;0.55;0.55;;;9.60;99.90;;;;;;4406414;32;20640;-65
2022/12/26 02:14:57;;;;;;;0.50;0.50;;;9.60;99.90;;;;;;4400968;32;20152;-66
2022/12/26 02:17:25;;;;;;;0.52;0.52;;;9.70;99.90;;;;;;4419977;32;20100;-65
2022/12/26 02:20:04;;;;;;;1.67;0.88;;;9.60;99.90;;;;;;4420987;32;20595;-65
2022/12/26 02:22:43;;;;;;;0.43;0.43;;;9.70;99.90;;;;;;4422815;32;20119;-66
2022/12/26 02:25:43;;;;;;;1.55;0.75;;;9.70;99.90;;;;;;4422849;32;20080;-65
2022/12/26 02:28:45;;;;;;;0.43;0.43;;;9.70;99.90;;;;;;4412001;32;20623;-65
2022/12/26 02:31:18;;;;;;;0.55;0.55;;;9.80;99.90;;;;;;4409261;32;20116;-65
2022/12/26 02:34:10;;;;;;;0.50;0.50;;;9.80;99.90;;;;;;4420323;32;20093;-65
2022/12/26 02:37:16;;;;;;;0.50;0.50;;;9.80;99.90;;;;;;4410405;32;20496;-65
2022/12/26 02:40:02;;;;;;;0.52;0.52;;;9.80;99.90;;;;;;4405359;32;20545;-65
2022/12/26 02:43:08;;;;;;;0.47;0.47;;;9.80;99.90;;;;;;4407198;32;20097;-67
2022/12/26 02:47:11;;;;;;;0.43;0.43;;;9.80;99.90;;;;;;4400405;32;20426;-66
2022/12/26 02:48:50;;;;;;;0.62;0.62;;;9.90;99.90;;;;;;4406607;32;20084;-65
2022/12/26 03:13:32;;;;;;;0.47;0.47;;;9.90;99.90;;;;;;4386672;32;20109;-66
2022/12/26 03:15:21;;;;;;;0.85;0.70;;;9.90;99.90;;;;;;4402542;32;20085;-66
2022/12/26 03:17:52;;;;;;;0.57;0.57;;;9.80;99.90;;;;;;4421918;32;20118;-66
2022/12/26 03:20:24;;;;;;;0.95;0.65;;;9.90;99.90;;;;;;4423434;32;20161;-66
2022/12/26 03:22:54;;;;;;;3.10;0.80;;;9.90;99.90;;;;;;4421919;32;20077;-66
2022/12/26 03:26:50;;;;;;;0.40;0.40;;;9.90;99.90;;;;;;4421734;32;20072;-66
2022/12/26 03:28:36;;;;;;;0.80;0.57;;;9.90;99.90;;;;;;4399713;32;20085;-66
2022/12/26 03:31:06;;;;;;;0.50;0.50;;;9.80;99.90;;;;;;4425862;32;20061;-66
2022/12/26 03:34:34;;;;;;;0.95;0.88;;;9.90;99.90;;;;;;4421813;32;20078;-66
2022/12/26 03:36:34;;;;;;;0.40;0.40;;;9.90;99.90;;;;;;4404197;32;20073;-66
2022/12/26 04:19:24;;;;;;;0.70;0.70;;;10.10;99.90;;;;;;4402167;32;20546;-66
2022/12/26 04:44:16;;;;;;;0.70;0.70;;;10.20;99.90;;;;;;4397728;32;20091;-66
2022/12/26 04:46:45;;;;;;;0.57;0.57;;;10.20;99.90;;;;;;4422428;32;20531;-66
2022/12/26 04:50:14;;;;;;;0.40;0.40;;;10.30;99.90;;;;;;4422446;32;20596;-66
2022/12/26 04:52:01;;;;;;;0.68;0.52;;;10.20;99.90;;;;;;4412474;32;20537;-66
2022/12/26 04:54:27;;;;;;;0.60;0.60;;;10.20;99.90;;;;;;4422422;32;20066;-66
2022/12/26 04:56:53;;;;;;;0.50;0.50;;;10.20;99.90;;;;;;4409826;32;20128;-66
2022/12/26 04:59:19;;;;;;;0.45;0.45;;;10.20;99.90;;;;;;4423057;32;20546;-66
2022/12/26 05:09:36;;;;;;;0.40;0.40;;;10.20;99.90;;;;;;4410966;32;20525;-66
2022/12/26 05:10:09;;;;;;;0.45;0.45;;;10.20;99.90;;;;;;4406574;32;20526;-65
2022/12/26 05:12:35;;;;;;;1.55;0.55;;;10.20;99.90;;;;;;4394239;32;20118;-65
2022/12/26 05:15:00;;;;;;;1.00;0.75;;;10.20;99.90;;;;;;4414495;32;20124;-66
2022/12/26 05:28:49;;;;;;;0.60;0.60;;;10.30;99.90;;;;;;4409529;32;20061;-66
2022/12/26 05:31:16;;;;;;;0.80;0.80;;;10.30;99.90;;;;;;4421889;32;20073;-66
2022/12/26 05:34:16;;;;;;;0.45;0.45;;;10.30;99.90;;;;;;4422654;32;20890;-66
2022/12/26 05:36:33;;;;;;;0.52;0.50;;;10.30;99.90;;;;;;4408370;32;20141;-66
2022/12/26 05:38:59;;;;;;;0.50;0.50;;;10.30;99.90;;;;;;4422933;32;20105;-66
2022/12/26 05:41:24;;;;;;;0.70;0.70;;;10.30;99.90;;;;;;4411888;32;20078;-66
2022/12/26 05:43:50;;;;;;;0.60;0.60;;;10.30;99.90;;;;;;4408405;32;20097;-66
2022/12/26 05:46:15;;;;;;;0.60;0.60;;;10.30;99.90;;;;;;4421784;32;20088;-66
2022/12/26 05:48:41;;;;;;;2.45;1.37;;;10.30;99.90;;;;;;4423020;32;20068;-66
2022/12/26 05:51:07;;;;;;;0.50;0.50;;;10.30;99.90;;;;;;4422126;32;20089;-66
2022/12/26 05:53:33;;;;;;;0.47;0.47;;;10.40;99.90;;;;;;4423350;32;20154;-66
2022/12/26 05:56:07;;;;;;;0.32;0.32;;;10.40;99.90;;;;;;4422257;32;20191;-66
2022/12/26 05:58:33;;;;;;;0.50;0.50;;;10.40;99.90;;;;;;4420524;32;20099;-67
2022/12/26 06:01:11;;;;;;;1.00;0.82;;;10.40;99.90;;;;;;4422698;32;20722;-66
2022/12/26 06:03:37;;;;;;;0.62;0.62;;;10.40;99.90;;;;;;4400664;32;20151;-66
2022/12/26 06:06:04;;;;;;;0.88;0.70;;;10.40;99.90;;;;;;4402597;32;20086;-66
2022/12/26 06:08:31;;;;;;;0.50;0.50;;;10.40;99.90;;;;;;4400290;32;20512;-66
2022/12/26 06:10:56;;;;;;;0.60;0.60;;;10.40;99.90;;;;;;4409999;32;20406;-66
2022/12/26 06:13:22;;;;;;;0.55;0.55;;;10.40;99.90;;;;;;4397489;32;20089;-66
2022/12/26 06:15:48;;;;;;;0.50;0.50;;;10.40;99.90;;;;;;4393718;32;20494;-66
2022/12/26 06:18:13;;;;;;;0.40;0.40;;;10.50;99.90;;;;;;4410810;32;20113;-66
2022/12/26 06:20:39;;;;;;;1.10;1.00;;;10.50;99.90;;;;;;4414423;32;20496;-66
2022/12/26 06:23:05;;;;;;;0.50;0.50;;;10.50;99.90;;;;;;4415237;32;20342;-66
2022/12/26 06:25:31;;;;;;;1.30;0.50;;;10.40;99.90;;;;;;4417248;32;20106;-66
2022/12/26 06:27:56;;;;;;;0.55;0.55;;;10.40;99.90;;;;;;4418784;32;20089;-66
2022/12/26 06:30:21;;;;;;;0.50;0.50;;;10.40;99.90;;;;;;4421169;32;20196;-66
2022/12/26 06:32:47;;;;;;;0.80;0.80;;;10.40;99.90;;;;;;4416035;32;20105;-66
2022/12/26 06:35:12;;;;;;;0.50;0.50;;;10.40;99.90;;;;;;4415268;32;20943;-66
2022/12/26 06:37:38;;;;;;;0.40;0.40;;;10.40;99.90;;;;;;4421253;32;20089;-66
2022/12/26 06:40:04;;;;;;;0.50;0.50;;;10.40;99.90;;;;;;4418424;32;20081;-66
2022/12/26 06:42:30;;;;;;;0.98;0.50;;;10.40;99.90;;;;;;4404985;32;20061;-66
2022/12/26 06:44:55;;;;;;;3.50;1.80;;;10.40;99.90;;;;;;4407464;32;20468;-66
2022/12/26 06:47:21;;;;;;;0.50;0.50;;;10.40;99.90;;;;;;4416648;32;20085;-67
2022/12/26 06:49:46;;;;;;;0.52;0.50;;;10.40;99.90;;;;;;4421923;32;20065;-66
2022/12/26 06:52:12;;;;;;;0.43;0.43;;;10.40;99.90;;;;;;4422051;32;20124;-67
2022/12/26 06:54:38;;;;;;;0.40;0.40;;;10.40;99.90;;;;;;4422755;32;20101;-67
2022/12/26 06:57:03;;;;;;;0.40;0.40;;;10.40;99.90;;;;;;4422506;32;20098;-66
2022/12/26 06:59:29;;;;;;;0.40;0.40;;;10.40;99.90;;;;;;4422706;32;20615;-66
2022/12/26 07:01:54;;;;;;;0.40;0.40;;;10.40;99.90;;;;;;4419395;32;20081;-66
2022/12/26 07:04:20;;;;;;;0.65;0.65;;;10.40;99.90;;;;;;4413049;32;20104;-66
2022/12/26 07:06:45;;;;;;;2.40;1.12;;;10.40;99.90;;;;;;4415568;32;20178;-66
2022/12/26 07:09:13;;;;;;;0.40;0.40;;;10.40;99.90;;;;;;4421727;32;20081;-66
2022/12/26 07:11:41;;;;;;;0.45;0.45;;;10.40;99.90;;;;;;4409970;32;20482;-66
2022/12/26 07:14:07;;;;;;;0.93;0.73;;;10.30;99.90;;;;;;4399832;32;20077;-67
2022/12/26 07:16:34;;;;;;;0.98;0.60;;;10.40;99.90;;;;;;4412848;32;20101;-66
2022/12/26 07:19:00;;;;;;;0.40;0.40;;;10.30;99.90;;;;;;4422870;32;20096;-67
2022/12/26 07:21:25;;;;;;;0.45;0.45;;;10.40;99.90;;;;;;4406475;32;20148;-66
2022/12/26 07:23:51;;;;;;;0.50;0.50;;;10.40;99.90;;;;;;4421302;32;20065;-66
2022/12/26 07:26:17;;;;;;;1.37;0.77;;;10.40;99.90;;;;;;4421682;32;20085;-66
2022/12/26 07:28:42;;;;;;;0.60;0.60;;;10.40;99.90;;;;;;4423194;32;20120;-66
2022/12/26 07:31:08;;;;;;;0.52;0.52;;;10.30;99.90;;;;;;4418534;32;88330;-66
2022/12/26 07:33:34;;;;;;;0.45;0.45;;;10.30;99.90;;;;;;4409592;32;20077;-65
2022/12/26 07:36:02;;;;;;;0.50;0.50;;;10.20;99.90;;;;;;4412734;32;20058;-66
2022/12/26 07:38:28;;;;;;;2.83;1.37;;;10.30;99.90;;;;;;4406010;32;20560;-66
2022/12/26 07:40:55;;;;;;;0.50;0.50;;;10.30;99.90;;;;;;4413953;32;20098;-66
2022/12/26 07:43:22;;;;;;;0.40;0.40;;;10.30;99.90;;;;;;4403292;32;20406;-65
2022/12/26 07:45:47;;;;;;;0.50;0.50;;;10.30;99.90;;;;;;4410223;32;20140;-66
2022/12/26 07:48:14;;;;;;;0.60;0.60;;;10.30;99.90;;;;;;4418830;32;20088;-66
2022/12/26 07:50:39;;;;;;;5.95;1.25;;;10.30;99.90;;;;;;4420715;32;20073;-66
2022/12/26 07:53:05;;;;;;;0.50;0.50;;;10.30;99.90;;;;;;4420029;32;20065;-66
2022/12/26 07:55:30;;;;;;;10.45;0.80;;;10.30;99.90;;;;;;4422145;32;20110;-66
2022/12/26 07:57:56;;;;;;;0.40;0.40;;;10.30;99.90;;;;;;4422370;32;20086;-66
2022/12/26 08:00:21;;;;;;;0.40;0.40;;;10.30;99.90;;;;;;4422672;32;20093;-66
2022/12/26 08:02:48;;;;;;;0.40;0.40;;;10.20;99.90;;;;;;4415636;32;20085;-65
2022/12/26 08:05:15;;;;;;;0.55;0.55;;;10.20;99.90;;;;;;4398082;32;20078;-66
2022/12/26 08:07:40;;;;;;;1.92;0.93;;;10.20;99.90;;;;;;4417818;32;20068;-67
2022/12/26 08:10:06;;;;;;;0.50;0.50;;;10.20;99.90;;;;;;4416429;32;20107;-65
2022/12/26 08:12:33;;;;;;;0.45;0.45;;;10.30;99.90;;;;;;4405589;32;20132;-66
2022/12/26 08:14:58;;;;;;;0.45;0.45;;;10.30;99.90;;;;;;4407318;32;20081;-66
2022/12/26 08:17:24;;;;;;;0.40;0.40;;;10.30;99.90;;;;;;4419592;32;20093;-66
2022/12/26 08:19:49;;;;;;;0.65;0.43;;;10.30;99.90;;;;;;4424426;32;20087;-66
2022/12/26 08:22:15;;;;;;;0.70;0.70;;;10.40;99.90;;;;;;4423822;32;20097;-66
2022/12/26 08:24:40;;;;;;;0.40;0.40;;;10.40;99.90;;;;;;4423473;32;20090;-66
2022/12/26 08:27:06;;;;;;;0.45;0.45;;;10.40;99.90;;;;;;4422312;32;20168;-65
2022/12/26 08:29:31;;;;;;;0.40;0.40;;;10.40;99.90;;;;;;4422681;32;20061;-66
2022/12/26 08:31:57;;;;;;;0.50;0.50;;;10.40;99.90;;;;;;4420104;32;20081;-66
2022/12/26 08:34:22;;;;;;;0.57;0.57;;;10.40;99.90;;;;;;4413422;32;20072;-65
2022/12/26 08:36:50;;;;;;;0.50;0.50;;;10.40;99.90;;;;;;4418034;32;20171;-65
2022/12/26 08:39:16;;;;;;;0.50;0.50;;;10.40;99.90;;;;;;4424086;32;20114;-65
2022/12/26 08:41:42;;;;;;;0.40;0.40;;;10.40;99.90;;;;;;4395578;32;20081;-65
2022/12/26 08:44:09;;;;;;;0.30;0.30;;;10.40;99.90;;;;;;4404918;32;21008;-65
2022/12/26 08:46:36;;;;;;;0.60;0.60;;;10.40;99.90;;;;;;4414205;32;20562;-66
2022/12/26 08:49:01;;;;;;;0.40;0.40;;;10.40;99.90;;;;;;4422775;32;20105;-69
2022/12/26 08:51:27;;;;;;;0.43;0.43;;;10.40;99.90;;;;;;4425932;32;20089;-66
2022/12/26 08:53:54;;;;;;;0.40;0.40;;;10.40;99.90;;;;;;4423196;32;20082;-66
2022/12/26 08:56:22;;;;;;;0.40;0.40;;;10.30;99.90;;;;;;4409095;32;20069;-66
2022/12/26 08:58:48;;;;;;;0.80;0.80;;;10.40;99.90;;;;;;4408211;32;20080;-66
2022/12/26 09:01:16;;;;;;;0.70;0.68;;;10.30;99.90;;;;;;4424018;32;20053;-66
2022/12/26 09:03:42;;;;;;;1.60;0.75;;;10.30;99.90;;;;;;4413071;32;20474;-66
2022/12/26 09:06:09;;;;;;;0.50;0.50;;;10.40;99.90;;;;;;4415810;32;20510;-66
2022/12/26 09:08:36;;;;;;;0.68;0.60;;;10.40;99.90;;;;;;4422163;32;20098;-66
2022/12/26 09:11:06;;;;;;;0.57;0.57;;;10.40;99.90;;;;;;4413659;32;20099;-66
2022/12/26 09:13:33;;;;;;;1.17;0.70;;;10.40;99.90;;;;;;4388315;32;20961;-66
2022/12/26 09:16:08;;;;;;;0.50;0.50;;;10.40;99.90;;;;;;4398186;32;20447;-66
2022/12/26 09:18:34;;;;;;;0.50;0.50;;;10.40;99.90;;;;;;4420797;32;20077;-66
2022/12/26 09:21:02;;;;;;;0.73;0.73;;;10.40;99.90;;;;;;4422480;32;20136;-66
2022/12/26 09:23:28;;;;;;;0.75;0.75;;;10.40;99.90;;;;;;4420023;32;20081;-66
2022/12/26 09:25:54;;;;;;;0.47;0.47;;;10.50;99.90;;;;;;4423596;32;20479;-66
2022/12/26 09:28:20;;;;;;;0.30;0.30;;;10.50;99.90;;;;;;4407573;32;20080;-66
2022/12/26 09:30:45;;;;;;;0.50;0.50;;;10.50;99.90;;;;;;4423889;32;20086;-66
2022/12/26 09:33:11;;;;;;;0.40;0.40;;;10.50;99.90;;;;;;4416637;32;20133;-65
2022/12/26 09:35:40;;;;;;;0.40;0.40;;;10.60;99.90;;;;;;4415464;32;20100;-65
2022/12/26 09:38:06;;;;;;;0.73;0.68;;;10.60;99.90;;;;;;4405569;32;20085;-66
2022/12/26 09:40:57;;;;;;;0.50;0.50;;;10.60;99.90;;;;;;4417471;32;20098;-66
2022/12/26 09:43:42;;;;;;;0.40;0.40;;;10.60;99.90;;;;;;4403529;32;20113;-66
2022/12/26 09:46:15;;;;;;;0.40;0.40;;;10.70;99.90;;;;;;4413875;32;20531;-65
2022/12/26 09:48:53;;;;;;;0.73;0.40;;;10.60;99.90;;;;;;4418630;32;20085;-66
2022/12/26 09:51:19;;;;;;;1.80;0.62;;;10.60;99.90;;;;;;4421893;32;20143;-66
2022/12/26 09:53:46;;;;;;;0.47;0.47;;;10.60;99.90;;;;;;4423933;32;20084;-66
2022/12/26 09:56:16;;;;;;;1.08;0.98;;;10.70;99.90;;;;;;4424249;32;20077;-66
2022/12/26 09:58:49;;;;;;;0.60;0.60;;;10.70;99.90;;;;;;4422006;32;20073;-66
2022/12/26 10:01:19;;;;;;;2.83;0.62;;;10.70;99.90;;;;;;4423093;32;20182;-66
2022/12/26 10:03:49;;;;;;;0.50;0.50;;;10.70;99.90;;;;;;4399014;32;20081;-65
2022/12/26 10:06:20;;;;;;;0.50;0.50;;;10.70;99.90;;;;;;4415293;32;20359;-65
2022/12/26 10:09:26;;;;;;;0.30;0.30;;;10.80;99.90;;;;;;4421887;32;20094;-66
2022/12/26 10:12:28;;;;;;;0.70;0.70;;;10.80;99.90;;;;;;4395072;32;20157;-66
2022/12/26 10:15:23;;;;;;;0.40;0.40;;;10.80;99.90;;;;;;4394679;32;20090;-66
2022/12/26 10:18:01;;;;;;;0.62;0.62;;;10.80;99.90;;;;;;4406091;32;20127;-66
2022/12/26 10:20:44;;;;;;;0.75;0.60;;;10.90;99.90;;;;;;4422166;32;20089;-66
2022/12/26 10:23:28;;;;;;;0.50;0.50;;;10.90;99.90;;;;;;4423107;32;20222;-66
2022/12/26 10:26:14;;;;;;;0.40;0.40;;;10.90;99.90;;;;;;4410159;32;20146;-67
2022/12/26 10:28:46;;;;;;;0.50;0.50;;;10.90;99.90;;;;;;4424333;32;20123;-66
2022/12/26 10:31:21;;;;;;;0.43;0.43;;;10.90;99.90;;;;;;4422698;32;20172;-66
2022/12/26 10:33:55;;;;;;;0.40;0.40;;;10.90;99.90;;;;;;4410351;32;20083;-65
2022/12/26 10:36:37;;;;;;;0.50;0.50;;;10.80;99.90;;;;;;4411886;32;20478;-66
2022/12/26 10:39:12;;;;;;;0.90;0.62;;;10.80;99.90;;;;;;4407678;32;20086;-65
2022/12/26 10:41:45;;;;;;;0.30;0.30;;;10.80;99.90;;;;;;4396103;32;20120;-66
2022/12/26 10:44:11;;;;;;;1.05;0.57;;;10.80;99.90;;;;;;4400340;32;20069;-65
2022/12/26 10:47:03;;;;;;;0.62;0.50;;;10.80;99.90;;;;;;4411877;32;20097;-66
2022/12/26 10:49:28;;;;;;;0.50;0.50;;;10.80;99.90;;;;;;4406298;32;20130;-66
2022/12/26 10:51:57;;;;;;;0.50;0.50;;;10.80;99.90;;;;;;4406327;32;20427;-66
2022/12/26 10:54:23;;;;;;;0.40;0.40;;;10.80;99.90;;;;;;4420337;32;20134;-66
2022/12/26 10:56:50;;;;;;;0.40;0.40;;;10.80;99.90;;;;;;4424261;32;20089;-66
2022/12/26 10:59:21;;;;;;;0.35;0.35;;;10.80;99.90;;;;;;4419514;32;20089;-66
2022/12/26 11:01:46;;;;;;;0.40;0.40;;;10.70;99.90;;;;;;4420936;32;20077;-66
2022/12/26 11:04:16;;;;;;;0.40;0.40;;;10.70;99.90;;;;;;4396828;32;20144;-66
2022/12/26 11:06:43;;;;;;;0.53;0.53;;;10.70;99.90;;;;;;4416597;32;20077;-66
2022/12/26 11:09:44;;;;;;;0.30;0.30;;;10.70;99.90;;;;;;4421864;32;20066;-66
2022/12/26 11:12:19;;;;;;;;;;;10.70;99.90;;;;;;4396601;32;20206;-65
2022/12/26 11:14:45;;;;;;;0.45;0.45;;;10.70;99.90;;;;;;4401340;32;19974;-66
2022/12/26 11:17:23;;;;;;;0.50;0.50;;;10.60;99.90;;;;;;4413006;32;20530;-66
2022/12/26 11:19:49;;;;;;;0.43;0.43;;;10.60;99.90;;;;;;4420633;32;20093;-67
2022/12/26 11:22:25;;;;;;;0.40;0.40;;;10.60;99.90;;;;;;4418929;32;20069;-66
2022/12/26 11:25:16;;;;;;;0.47;0.47;;;10.60;99.90;;;;;;4418299;32;20123;-66
2022/12/26 11:27:44;;;;;;;;;;;10.60;99.90;;;;;;4409505;32;20549;-66
2022/12/26 11:30:19;;;;;;;0.40;0.40;;;10.60;99.90;;;;;;4423319;32;19965;-66
2022/12/26 11:32:48;;;;;;;1.23;0.60;;;10.50;99.90;;;;;;4416486;32;20084;-66
2022/12/26 11:35:35;;;;;;;0.68;0.62;;;10.50;99.90;;;;;;4395711;32;20086;-66
2022/12/26 11:38:04;;;;;;;0.50;0.50;;;10.50;99.90;;;;;;4419541;32;20098;-66
2022/12/26 11:40:36;;;;;;;0.40;0.40;;;10.50;99.90;;;;;;4416270;32;21686;-66
2022/12/26 11:43:05;;;;;;;0.60;0.60;;;10.50;99.90;;;;;;4400844;32;20131;-66
2022/12/26 11:45:36;;;;;;;0.50;0.50;;;10.50;99.90;;;;;;4391701;32;20174;-66
2022/12/26 11:48:01;;;;;;;0.75;0.60;;;10.50;99.90;;;;;;4420105;32;20074;-66
2022/12/26 11:50:29;;;;;;;0.55;0.55;;;10.50;99.90;;;;;;4424140;32;20128;-65
2022/12/26 11:52:57;;;;;;;0.40;0.40;;;10.50;99.90;;;;;;4423130;32;20090;-66
2022/12/26 11:55:27;;;;;;;0.50;0.50;;;10.50;99.90;;;;;;4423506;32;20089;-66
2022/12/26 11:57:59;;;;;;;0.65;0.65;;;10.50;99.90;;;;;;4423005;32;20080;-66
2022/12/26 12:00:25;;;;;;;0.50;0.50;;;10.50;99.90;;;;;;4424973;32;20065;-66
2022/12/26 12:02:51;;;;;;;0.82;0.47;;;10.50;99.90;;;;;;4402745;32;20124;-66
2022/12/26 12:05:32;;;;;;;7.97;0.70;;;10.50;99.90;;;;;;4413330;32;20117;-66
2022/12/26 12:08:22;;;;;;;0.50;0.50;;;10.50;99.90;;;;;;4406667;32;20546;-66
2022/12/26 12:11:07;;;;;;;0.50;0.50;;;10.60;99.90;;;;;;4416863;32;20073;-66
2022/12/26 12:14:01;;;;;;;0.30;0.30;;;10.50;99.90;;;;;;4402280;32;20490;-66
2022/12/26 12:16:40;;;;;;;0.40;0.40;;;10.50;99.90;;;;;;4403639;32;20290;-66
2022/12/26 12:19:28;;;;;;;0.43;0.43;;;10.50;99.90;;;;;;4422569;32;20065;-67
2022/12/26 12:22:08;;;;;;;0.55;0.52;;;10.50;99.90;;;;;;4412621;32;20069;-67
2022/12/26 12:24:59;;;;;;;0.40;0.40;;;10.50;99.90;;;;;;4423136;32;20135;-66
2022/12/26 12:27:31;;;;;;;0.62;0.62;;;10.50;99.90;;;;;;4413073;32;20282;-66
2022/12/26 12:30:04;;;;;;;24.00;0.85;;;10.50;99.90;;;;;;4422546;32;20061;-66
2022/12/26 12:32:37;;;;;;;0.88;0.88;;;10.40;99.90;;;;;;4418577;32;20203;-66
2022/12/26 12:35:33;;;;;;;0.60;0.60;;;10.50;99.90;;;;;;4411550;32;20484;-66
2022/12/26 12:38:24;;;;;;;13.25;0.88;;;10.40;99.90;;;;;;4406236;32;20131;-67
2022/12/26 12:41:11;;;;;;;0.55;0.55;;;10.40;99.90;;;;;;4404757;32;20101;-67
2022/12/26 12:43:54;;;;;;;0.60;0.60;;;10.40;99.90;;;;;;4386160;32;20069;-66
2022/12/26 12:46:46;;;;;;;0.57;0.57;;;10.40;99.90;;;;;;4411750;32;20155;-66
2022/12/26 12:49:37;;;;;;;0.60;0.50;;;10.50;99.90;;;;;;4414707;32;20069;-66
2022/12/26 12:52:25;;;;;;;0.43;0.43;;;10.50;99.90;;;;;;4412214;32;20535;-67
2022/12/26 12:54:56;;;;;;;0.57;0.57;;;10.60;99.90;;;;;;4411653;32;20089;-66
2022/12/26 12:57:39;;;;;;;0.50;0.50;;;10.60;99.90;;;;;;4422103;32;20078;-66
2022/12/26 13:00:13;;;;;;;0.40;0.40;;;10.60;99.90;;;;;;4424298;32;20566;-67
2022/12/26 13:03:04;;;;;;;0.50;0.50;;;10.50;99.90;;;;;;4417692;32;20089;-66
2022/12/26 13:05:54;;;;;;;0.73;0.55;;;10.50;99.90;;;;;;4400270;32;20081;-66
2022/12/26 13:08:36;;;;;;;0.43;0.43;;;10.50;99.90;;;;;;4407772;32;20077;-66
2022/12/26 13:11:15;;;;;;;2.47;0.88;;;10.50;99.90;;;;;;4397919;32;20104;-66
2022/12/26 13:13:48;;;;;;;0.50;0.50;;;10.50;99.90;;;;;;4401716;32;20109;-66
2022/12/26 13:16:17;;;;;;;1.17;1.08;;;10.50;99.90;;;;;;4409359;32;20089;-66
2022/12/26 13:19:03;;;;;;;0.50;0.50;;;10.60;99.90;;;;;;4421263;32;20081;-65
2022/12/26 13:21:33;;;;;;;0.40;0.40;;;10.50;99.90;;;;;;4422095;32;20097;-67
2022/12/26 13:24:36;;;;;;;0.77;0.77;;;10.50;99.90;;;;;;4424904;32;20077;-65
2022/12/26 13:26:57;;;;;;;0.90;0.50;;;10.50;99.90;;;;;;4411210;32;20482;-66
2022/12/26 13:29:43;;;;;;;0.40;0.40;;;10.60;99.90;;;;;;4419478;32;20077;-65
2022/12/26 13:32:23;;;;;;;0.40;0.40;;;10.60;99.90;;;;;;4408924;32;20101;-66
2022/12/26 13:34:51;;;;;;;0.50;0.50;;;10.60;99.90;;;;;;4412071;32;20165;-66
2022/12/26 13:37:38;;;;;;;0.57;0.57;;;10.60;99.90;;;;;;4417422;32;20853;-66
2022/12/26 13:40:20;;;;;;;0.50;0.50;;;10.60;99.90;;;;;;4409607;32;20074;-66
2022/12/26 13:43:54;;;;;;;1.20;1.10;;;10.60;99.90;;;;;;4406913;32;20626;-67
2022/12/26 13:45:39;;;;;;;0.68;0.68;;;10.50;99.90;;;;;;4396515;32;20220;-66
2022/12/26 13:48:31;;;;;;;0.52;0.52;;;10.50;99.90;;;;;;4401841;32;20069;-66
2022/12/26 13:51:00;;;;;;;0.40;0.40;;;10.50;99.90;;;;;;4419795;32;20101;-66
2022/12/26 13:53:31;;;;;;;1.10;0.70;;;10.50;99.90;;;;;;4410205;32;20096;-67
2022/12/26 13:56:01;;;;;;;1.77;0.95;;;10.40;99.90;;;;;;4420446;32;20124;-66
2022/12/26 13:58:52;;;;;;;0.40;0.40;;;10.40;99.90;;;;;;4406555;32;20102;-67
2022/12/26 14:01:38;;;;;;;0.50;0.50;;;10.40;99.90;;;;;;4408066;32;20094;-66
2022/12/26 14:04:34;;;;;;;2.92;0.80;;;10.40;99.90;;;;;;4399535;32;20081;-66
2022/12/26 14:07:10;;;;;;;1.10;0.40;;;10.40;99.90;;;;;;4403421;32;20438;-67
2022/12/26 14:09:55;;;;;;;0.50;0.50;;;10.30;99.90;;;;;;4421484;32;20081;-66
2022/12/26 14:12:46;;;;;;;0.60;0.60;;;10.30;99.90;;;;;;4405699;32;20522;-65
2022/12/26 14:15:17;;;;;;;0.45;0.45;;;10.30;99.90;;;;;;4392559;32;20462;-65
2022/12/26 14:18:11;;;;;;;0.40;0.40;;;10.20;99.90;;;;;;4416420;32;20061;-66
2022/12/26 14:20:53;;;;;;;0.85;0.50;;;10.20;99.90;;;;;;4412534;32;20065;-66
2022/12/26 14:23:52;;;;;;;0.45;0.45;;;10.20;99.90;;;;;;4422310;32;20098;-65
2022/12/26 14:26:58;;;;;;;0.43;0.43;;;10.10;99.90;;;;;;4407408;32;20109;-66
2022/12/26 14:29:47;;;;;;;0.40;0.40;;;10.10;99.90;;;;;;4405539;32;20127;-66
2022/12/26 14:32:31;;;;;;;0.70;0.60;;;10.20;99.90;;;;;;4403169;32;20069;-66
2022/12/26 14:35:05;;;;;;;2.17;0.50;;;10.10;99.90;;;;;;4410634;32;20627;-66
2022/12/26 14:37:56;;;;;;;0.68;0.65;;;10.10;99.90;;;;;;4419066;32;20085;-66
2022/12/26 14:40:33;;;;;;;2.20;0.82;;;10.10;99.90;;;;;;4404735;32;20252;-66
2022/12/26 14:43:16;;;;;;;0.43;0.43;;;10.00;99.90;;;;;;4403478;32;20113;-66
2022/12/26 14:45:45;;;;;;;0.50;0.50;;;10.00;99.90;;;;;;4407132;32;20106;-65
2022/12/26 14:48:15;;;;;;;0.52;0.52;;;10.00;99.90;;;;;;4417202;32;20062;-66
2022/12/26 14:50:46;;;;;;;0.40;0.40;;;10.00;99.90;;;;;;4419583;32;20101;-66
2022/12/26 14:53:31;;;;;;;0.70;0.70;;;10.00;99.90;;;;;;4408074;32;20567;-66
2022/12/26 14:55:59;;;;;;;0.40;0.40;;;10.00;99.90;;;;;;4419919;32;20101;-66
2022/12/26 14:58:42;;;;;;;0.37;0.37;;;10.00;99.90;;;;;;4420783;32;20093;-66
2022/12/26 15:01:11;;;;;;;0.40;0.40;;;10.00;99.90;;;;;;4421655;32;20098;-66